YMF208 YBBN-YSSY
Flight info
| Callsign | YMF208 |
|---|---|
| Flight time | 1h 10m |
| Altitude | 40000 |
| Route | SANEG H91 IGDAM H652 BOREE |
| Aircraft | MD11/H-SDE1E2E3FGHIJ2J3J4J5M1RWXY/LB1D1 |
Departure
| Time | 2026-05-07 07:15 |
|---|---|
| Airport | Brisbane International Airport (YBBN) |
Arrival
| Time | 2026-05-07 08:25 |
|---|---|
| Airport | Sydney Kingsford Smith International Airport (YSSY) |
| Time | Latitude | Longitude | Altitude | Speed | Heading |
|---|---|---|---|---|---|
| 2026-05-07 07:03 | -27.38094 | 153.12462 | 26 ft | 0 kts | 118° |
| 2026-05-07 07:10 | -27.38095 | 153.12463 | 26 ft | 0 kts | 118° |
| 2026-05-07 07:10 | -27.38103 | 153.12481 | 26 ft | 5 kts | 118° |
| 2026-05-07 07:10 | -27.38110 | 153.12525 | 26 ft | 8 kts | 72° |
| 2026-05-07 07:11 | -27.38079 | 153.12590 | 26 ft | 11 kts | 59° |
| 2026-05-07 07:11 | -27.38032 | 153.12676 | 26 ft | 15 kts | 59° |
| 2026-05-07 07:11 | -27.37961 | 153.12776 | 26 ft | 18 kts | 36° |
| 2026-05-07 07:11 | -27.37840 | 153.12847 | 27 ft | 21 kts | 27° |
| 2026-05-07 07:12 | -27.37697 | 153.12928 | 27 ft | 25 kts | 27° |
| 2026-05-07 07:12 | -27.37534 | 153.13023 | 27 ft | 28 kts | 27° |
| 2026-05-07 07:12 | -27.37364 | 153.13120 | 27 ft | 22 kts | 26° |
| 2026-05-07 07:12 | -27.37283 | 153.13173 | 27 ft | 12 kts | 54° |
| 2026-05-07 07:13 | -27.37287 | 153.13267 | 27 ft | 14 kts | 111° |
| 2026-05-07 07:13 | -27.37338 | 153.13372 | 27 ft | 16 kts | 130° |
| 2026-05-07 07:13 | -27.37440 | 153.13421 | 27 ft | 17 kts | 187° |
| 2026-05-07 07:13 | -27.37532 | 153.13395 | 27 ft | 6 kts | 205° |
| 2026-05-07 07:14 | -27.37559 | 153.13381 | 27 ft | 6 kts | 205° |
| 2026-05-07 07:14 | -27.37621 | 153.13347 | 27 ft | 27 kts | 206° |
| 2026-05-07 07:14 | -27.38090 | 153.13079 | 27 ft | 124 kts | 206° |
| 2026-05-07 07:14 | -27.39104 | 153.12485 | 102 ft | 193 kts | 210° |
| 2026-05-07 07:15 | -27.40331 | 153.11795 | 974 ft | 198 kts | 208° |
| 2026-05-07 07:15 | -27.41460 | 153.11202 | 2348 ft | 179 kts | 209° |
| 2026-05-07 07:15 | -27.42636 | 153.10949 | 3318 ft | 178 kts | 183° |
| 2026-05-07 07:15 | -27.43919 | 153.11271 | 3850 ft | 204 kts | 163° |
| 2026-05-07 07:16 | -27.45294 | 153.11979 | 4365 ft | 226 kts | 158° |
| 2026-05-07 07:16 | -27.46715 | 153.12873 | 4997 ft | 241 kts | 153° |
| 2026-05-07 07:16 | -27.48154 | 153.13872 | 5675 ft | 251 kts | 153° |
| 2026-05-07 07:16 | -27.49756 | 153.14659 | 6631 ft | 252 kts | 172° |
| 2026-05-07 07:17 | -27.51504 | 153.14809 | 7457 ft | 261 kts | 192° |
| 2026-05-07 07:17 | -27.53308 | 153.14437 | 8311 ft | 272 kts | 200° |
| 2026-05-07 07:17 | -27.55133 | 153.13835 | 9338 ft | 283 kts | 204° |
| 2026-05-07 07:17 | -27.56993 | 153.13073 | 10402 ft | 295 kts | 206° |
| 2026-05-07 07:18 | -27.58996 | 153.12197 | 11007 ft | 325 kts | 206° |
| 2026-05-07 07:18 | -27.61207 | 153.11262 | 11579 ft | 356 kts | 204° |
| 2026-05-07 07:18 | -27.63667 | 153.10316 | 12100 ft | 388 kts | 201° |
| 2026-05-07 07:18 | -27.66317 | 153.09437 | 12981 ft | 407 kts | 200° |
| 2026-05-07 07:19 | -27.69068 | 153.08569 | 14131 ft | 416 kts | 200° |
| 2026-05-07 07:19 | -27.71868 | 153.07674 | 15293 ft | 424 kts | 200° |
| 2026-05-07 07:19 | -27.74712 | 153.06739 | 16444 ft | 431 kts | 201° |
| 2026-05-07 07:19 | -27.77608 | 153.05776 | 17540 ft | 438 kts | 202° |
| 2026-05-07 07:20 | -27.80526 | 153.04741 | 18642 ft | 443 kts | 204° |
| 2026-05-07 07:20 | -27.83453 | 153.03616 | 19682 ft | 449 kts | 205° |
| 2026-05-07 07:20 | -27.86367 | 153.02408 | 20716 ft | 454 kts | 207° |
| 2026-05-07 07:20 | -27.89327 | 153.01116 | 21702 ft | 461 kts | 208° |
| 2026-05-07 07:21 | -27.92321 | 152.99786 | 22637 ft | 468 kts | 209° |
| 2026-05-07 07:21 | -27.95374 | 152.98434 | 23618 ft | 474 kts | 209° |
| 2026-05-07 07:21 | -27.98473 | 152.97084 | 24522 ft | 481 kts | 209° |
| 2026-05-07 07:21 | -28.01632 | 152.95714 | 25408 ft | 486 kts | 210° |
| 2026-05-07 07:22 | -28.04782 | 152.94331 | 26271 ft | 492 kts | 211° |
| 2026-05-07 07:22 | -28.07980 | 152.92915 | 27155 ft | 497 kts | 211° |
| 2026-05-07 07:22 | -28.11172 | 152.91478 | 28246 ft | 494 kts | 213° |
| 2026-05-07 07:22 | -28.14281 | 152.89963 | 29395 ft | 490 kts | 215° |
| 2026-05-07 07:23 | -28.17431 | 152.88423 | 30441 ft | 491 kts | 214° |
| 2026-05-07 07:23 | -28.20566 | 152.86953 | 31498 ft | 490 kts | 214° |
| 2026-05-07 07:23 | -28.23707 | 152.85553 | 32584 ft | 486 kts | 213° |
| 2026-05-07 07:23 | -28.26838 | 152.84188 | 33543 ft | 483 kts | 214° |
| 2026-05-07 07:24 | -28.29927 | 152.82826 | 34516 ft | 480 kts | 214° |
| 2026-05-07 07:24 | -28.33013 | 152.81453 | 35467 ft | 476 kts | 215° |
| 2026-05-07 07:24 | -28.36066 | 152.80096 | 36385 ft | 471 kts | 215° |
| 2026-05-07 07:24 | -28.39089 | 152.78755 | 37154 ft | 468 kts | 216° |
| 2026-05-07 07:25 | -28.45148 | 152.76066 | 38367 ft | 467 kts | 216° |
| 2026-05-07 07:25 | -28.48160 | 152.74740 | 39053 ft | 464 kts | 216° |
| 2026-05-07 07:25 | -28.51176 | 152.73403 | 39542 ft | 464 kts | 216° |
| 2026-05-07 07:26 | -28.54168 | 152.72077 | 39998 ft | 461 kts | 215° |
| 2026-05-07 07:26 | -28.60119 | 152.69462 | 39933 ft | 456 kts | 216° |
| 2026-05-07 07:27 | -28.66049 | 152.66825 | 39972 ft | 458 kts | 215° |
| 2026-05-07 07:27 | -28.71997 | 152.64221 | 39976 ft | 457 kts | 215° |
| 2026-05-07 07:28 | -28.77942 | 152.61578 | 39982 ft | 458 kts | 216° |
| 2026-05-07 07:28 | -28.83824 | 152.58874 | 39991 ft | 454 kts | 218° |
| 2026-05-07 07:29 | -28.89482 | 152.55815 | 39998 ft | 446 kts | 221° |
| 2026-05-07 07:29 | -28.94968 | 152.52518 | 39997 ft | 446 kts | 222° |
| 2026-05-07 07:30 | -29.00470 | 152.49230 | 39987 ft | 447 kts | 221° |
| 2026-05-07 07:30 | -29.05973 | 152.45929 | 39998 ft | 446 kts | 221° |
| 2026-05-07 07:31 | -29.11459 | 152.42640 | 40017 ft | 446 kts | 221° |
| 2026-05-07 07:31 | -29.16942 | 152.39368 | 40005 ft | 444 kts | 222° |
| 2026-05-07 07:32 | -29.22427 | 152.36068 | 40011 ft | 446 kts | 221° |
| 2026-05-07 07:32 | -29.27916 | 152.32803 | 40032 ft | 446 kts | 222° |
| 2026-05-07 07:33 | -29.33390 | 152.29513 | 40039 ft | 443 kts | 222° |
| 2026-05-07 07:33 | -29.38876 | 152.26224 | 40042 ft | 444 kts | 222° |
| 2026-05-07 07:34 | -29.44365 | 152.22943 | 40053 ft | 447 kts | 221° |
| 2026-05-07 07:34 | -29.49870 | 152.19657 | 40053 ft | 445 kts | 222° |
| 2026-05-07 07:35 | -29.55368 | 152.16352 | 40057 ft | 446 kts | 221° |
| 2026-05-07 07:35 | -29.60890 | 152.13067 | 40055 ft | 447 kts | 221° |
| 2026-05-07 07:36 | -29.66411 | 152.09762 | 40050 ft | 449 kts | 220° |
| 2026-05-07 07:36 | -29.72275 | 152.07048 | 40066 ft | 465 kts | 211° |
| 2026-05-07 07:37 | -29.78661 | 152.05224 | 40093 ft | 475 kts | 206° |
| 2026-05-07 07:37 | -29.85105 | 152.03603 | 40082 ft | 477 kts | 207° |
| 2026-05-07 07:38 | -29.91581 | 152.01897 | 40078 ft | 475 kts | 207° |
| 2026-05-07 07:38 | -29.97999 | 152.00185 | 40068 ft | 475 kts | 207° |
| 2026-05-07 07:39 | -30.04472 | 151.98460 | 40069 ft | 477 kts | 206° |
| 2026-05-07 07:39 | -30.10921 | 151.96771 | 40062 ft | 477 kts | 207° |
| 2026-05-07 07:40 | -30.17409 | 151.95062 | 40032 ft | 476 kts | 206° |
| 2026-05-07 07:40 | -30.23863 | 151.93365 | 40023 ft | 475 kts | 206° |
| 2026-05-07 07:41 | -30.30265 | 151.91598 | 40008 ft | 471 kts | 209° |
| 2026-05-07 07:41 | -30.36433 | 151.89253 | 40016 ft | 460 kts | 215° |
| 2026-05-07 07:42 | -30.42310 | 151.86501 | 40051 ft | 458 kts | 216° |
| 2026-05-07 07:42 | -30.48247 | 151.83715 | 40040 ft | 458 kts | 215° |
| 2026-05-07 07:43 | -30.54153 | 151.80960 | 40037 ft | 459 kts | 216° |
| 2026-05-07 07:43 | -30.60074 | 151.78173 | 40038 ft | 460 kts | 216° |
| 2026-05-07 07:44 | -30.66011 | 151.75410 | 40039 ft | 457 kts | 216° |
| 2026-05-07 07:44 | -30.71884 | 151.72637 | 40057 ft | 456 kts | 215° |
| 2026-05-07 07:45 | -30.77774 | 151.69893 | 40061 ft | 457 kts | 215° |
| 2026-05-07 07:45 | -30.83666 | 151.67117 | 40066 ft | 457 kts | 215° |
| 2026-05-07 07:46 | -30.89569 | 151.64360 | 40066 ft | 457 kts | 215° |
| 2026-05-07 07:46 | -30.95478 | 151.61586 | 40064 ft | 458 kts | 216° |
| 2026-05-07 07:47 | -31.01403 | 151.58813 | 40053 ft | 458 kts | 215° |
| 2026-05-07 07:47 | -31.07293 | 151.56055 | 40063 ft | 458 kts | 215° |
| 2026-05-07 07:48 | -31.13197 | 151.53287 | 40030 ft | 458 kts | 215° |
| 2026-05-07 07:48 | -31.19098 | 151.50516 | 40061 ft | 458 kts | 216° |
| 2026-05-07 07:49 | -31.24987 | 151.47699 | 40052 ft | 457 kts | 214° |
| 2026-05-07 07:49 | -31.30887 | 151.44929 | 40041 ft | 455 kts | 215° |
| 2026-05-07 07:50 | -31.36741 | 151.42130 | 40041 ft | 456 kts | 215° |
| 2026-05-07 07:50 | -31.42560 | 151.39220 | 40043 ft | 450 kts | 217° |
| 2026-05-07 07:51 | -31.48311 | 151.36257 | 40041 ft | 456 kts | 214° |
| 2026-05-07 07:51 | -31.54272 | 151.33628 | 40068 ft | 460 kts | 213° |
| 2026-05-07 07:52 | -31.60244 | 151.31050 | 40067 ft | 458 kts | 213° |
| 2026-05-07 07:52 | -31.66219 | 151.28443 | 39992 ft | 458 kts | 213° |
| 2026-05-07 07:52 | -31.69222 | 151.27134 | 39414 ft | 462 kts | 213° |
| 2026-05-07 07:53 | -31.72250 | 151.25822 | 38811 ft | 461 kts | 213° |
| 2026-05-07 07:53 | -31.75223 | 151.24540 | 38208 ft | 458 kts | 213° |
| 2026-05-07 07:53 | -31.78231 | 151.23238 | 37615 ft | 455 kts | 213° |
| 2026-05-07 07:53 | -31.81195 | 151.21948 | 37034 ft | 453 kts | 213° |
| 2026-05-07 07:54 | -31.84137 | 151.20675 | 36468 ft | 449 kts | 213° |
| 2026-05-07 07:54 | -31.87049 | 151.19411 | 35887 ft | 447 kts | 213° |
| 2026-05-07 07:54 | -31.89979 | 151.18145 | 35374 ft | 447 kts | 214° |
| 2026-05-07 07:54 | -31.92877 | 151.16884 | 34945 ft | 450 kts | 213° |
| 2026-05-07 07:55 | -31.95827 | 151.15562 | 34551 ft | 449 kts | 216° |
| 2026-05-07 07:55 | -31.98659 | 151.14095 | 34062 ft | 450 kts | 217° |
| 2026-05-07 07:55 | -32.01551 | 151.12575 | 33462 ft | 455 kts | 216° |
| 2026-05-07 07:55 | -32.04427 | 151.11171 | 33049 ft | 450 kts | 213° |
| 2026-05-07 07:56 | -32.07345 | 151.09850 | 32317 ft | 451 kts | 211° |
| 2026-05-07 07:56 | -32.10295 | 151.08563 | 31764 ft | 446 kts | 210° |
| 2026-05-07 07:56 | -32.13188 | 151.07315 | 31207 ft | 441 kts | 209° |
| 2026-05-07 07:56 | -32.16023 | 151.06064 | 30566 ft | 437 kts | 209° |
| 2026-05-07 07:57 | -32.18878 | 151.04794 | 29830 ft | 434 kts | 208° |
| 2026-05-07 07:57 | -32.21673 | 151.03569 | 29029 ft | 432 kts | 207° |
| 2026-05-07 07:57 | -32.24496 | 151.02350 | 27996 ft | 434 kts | 207° |
| 2026-05-07 07:57 | -32.27309 | 151.01117 | 27014 ft | 434 kts | 207° |
| 2026-05-07 07:58 | -32.30148 | 150.99861 | 25846 ft | 437 kts | 207° |
| 2026-05-07 07:58 | -32.32957 | 150.98623 | 24875 ft | 434 kts | 207° |
| 2026-05-07 07:58 | -32.35760 | 150.97412 | 24131 ft | 427 kts | 207° |
| 2026-05-07 07:58 | -32.38514 | 150.96207 | 23413 ft | 420 kts | 207° |
| 2026-05-07 07:59 | -32.41219 | 150.95013 | 22758 ft | 413 kts | 207° |
| 2026-05-07 07:59 | -32.43903 | 150.93829 | 22179 ft | 409 kts | 206° |
| 2026-05-07 07:59 | -32.46598 | 150.92748 | 21629 ft | 409 kts | 201° |
| 2026-05-07 07:59 | -32.49397 | 150.92107 | 21122 ft | 412 kts | 194° |
| 2026-05-07 08:00 | -32.52273 | 150.91897 | 20606 ft | 416 kts | 188° |
| 2026-05-07 08:00 | -32.55162 | 150.92113 | 20103 ft | 419 kts | 182° |
| 2026-05-07 08:00 | -32.58040 | 150.92590 | 19544 ft | 416 kts | 179° |
| 2026-05-07 08:00 | -32.60881 | 150.93164 | 19014 ft | 413 kts | 179° |
| 2026-05-07 08:01 | -32.63702 | 150.93717 | 18525 ft | 411 kts | 180° |
| 2026-05-07 08:01 | -32.66497 | 150.94224 | 17998 ft | 404 kts | 180° |
| 2026-05-07 08:01 | -32.69262 | 150.94703 | 17514 ft | 401 kts | 180° |
| 2026-05-07 08:01 | -32.72020 | 150.95175 | 17015 ft | 396 kts | 179° |
| 2026-05-07 08:02 | -32.74714 | 150.95648 | 16543 ft | 394 kts | 179° |
| 2026-05-07 08:02 | -32.77407 | 150.96132 | 16042 ft | 391 kts | 179° |
| 2026-05-07 08:02 | -32.80091 | 150.96599 | 15574 ft | 388 kts | 179° |
| 2026-05-07 08:02 | -32.82744 | 150.97032 | 15050 ft | 384 kts | 179° |
| 2026-05-07 08:03 | -32.85394 | 150.97467 | 14920 ft | 385 kts | 179° |
| 2026-05-07 08:03 | -32.88067 | 150.97930 | 14905 ft | 387 kts | 178° |
| 2026-05-07 08:03 | -32.90715 | 150.98415 | 14823 ft | 386 kts | 177° |
| 2026-05-07 08:03 | -32.93384 | 150.98911 | 14745 ft | 386 kts | 178° |
| 2026-05-07 08:04 | -32.96033 | 150.99387 | 14655 ft | 385 kts | 178° |
| 2026-05-07 08:04 | -32.98683 | 150.99860 | 14596 ft | 385 kts | 178° |
| 2026-05-07 08:04 | -33.01355 | 151.00340 | 14514 ft | 386 kts | 177° |
| 2026-05-07 08:04 | -33.03990 | 151.00823 | 14429 ft | 385 kts | 177° |
| 2026-05-07 08:05 | -33.06658 | 151.01317 | 14344 ft | 384 kts | 177° |
| 2026-05-07 08:05 | -33.09284 | 151.01787 | 14283 ft | 384 kts | 177° |
| 2026-05-07 08:05 | -33.11952 | 151.02256 | 14218 ft | 384 kts | 177° |
| 2026-05-07 08:05 | -33.14631 | 151.02749 | 14139 ft | 386 kts | 177° |
| 2026-05-07 08:06 | -33.17313 | 151.03244 | 14063 ft | 388 kts | 177° |
| 2026-05-07 08:06 | -33.20015 | 151.03731 | 13905 ft | 389 kts | 177° |
| 2026-05-07 08:06 | -33.22666 | 151.04200 | 13634 ft | 387 kts | 176° |
| 2026-05-07 08:06 | -33.25323 | 151.04684 | 13228 ft | 383 kts | 176° |
| 2026-05-07 08:07 | -33.27979 | 151.05171 | 12837 ft | 381 kts | 176° |
| 2026-05-07 08:07 | -33.30575 | 151.05670 | 12499 ft | 382 kts | 175° |
| 2026-05-07 08:07 | -33.33201 | 151.06195 | 12170 ft | 382 kts | 175° |
| 2026-05-07 08:07 | -33.35823 | 151.06721 | 11817 ft | 377 kts | 175° |
| 2026-05-07 08:08 | -33.38361 | 151.07214 | 11349 ft | 369 kts | 175° |
| 2026-05-07 08:08 | -33.40893 | 151.07678 | 10849 ft | 363 kts | 175° |
| 2026-05-07 08:08 | -33.43367 | 151.08143 | 10380 ft | 357 kts | 174° |
| 2026-05-07 08:08 | -33.45774 | 151.08613 | 9963 ft | 350 kts | 174° |
| 2026-05-07 08:09 | -33.48146 | 151.09083 | 9571 ft | 343 kts | 174° |
| 2026-05-07 08:09 | -33.50484 | 151.09534 | 9196 ft | 336 kts | 175° |
| 2026-05-07 08:09 | -33.52791 | 151.09969 | 9176 ft | 332 kts | 175° |
| 2026-05-07 08:09 | -33.55023 | 151.10394 | 9176 ft | 319 kts | 175° |
| 2026-05-07 08:10 | -33.57154 | 151.10795 | 9179 ft | 304 kts | 175° |
| 2026-05-07 08:10 | -33.59209 | 151.11189 | 9184 ft | 291 kts | 175° |
| 2026-05-07 08:10 | -33.61172 | 151.11568 | 9198 ft | 281 kts | 175° |
| 2026-05-07 08:10 | -33.63094 | 151.11938 | 8850 ft | 285 kts | 175° |
| 2026-05-07 08:11 | -33.65059 | 151.12309 | 8473 ft | 286 kts | 175° |
| 2026-05-07 08:11 | -33.67018 | 151.12685 | 8246 ft | 281 kts | 175° |
| 2026-05-07 08:11 | -33.68913 | 151.13088 | 8217 ft | 275 kts | 168° |
| 2026-05-07 08:11 | -33.70571 | 151.14197 | 8180 ft | 278 kts | 142° |
| 2026-05-07 08:12 | -33.71653 | 151.16103 | 8093 ft | 280 kts | 116° |
| 2026-05-07 08:12 | -33.72110 | 151.18346 | 7996 ft | 277 kts | 103° |
| 2026-05-07 08:12 | -33.72253 | 151.20632 | 7881 ft | 272 kts | 97° |
| 2026-05-07 08:12 | -33.72252 | 151.22886 | 7757 ft | 267 kts | 94° |
| 2026-05-07 08:13 | -33.72188 | 151.25110 | 7530 ft | 264 kts | 92° |
| 2026-05-07 08:13 | -33.72097 | 151.27261 | 7214 ft | 261 kts | 92° |
| 2026-05-07 08:13 | -33.71996 | 151.29445 | 6854 ft | 260 kts | 92° |
| 2026-05-07 08:13 | -33.71893 | 151.31629 | 6502 ft | 259 kts | 92° |
| 2026-05-07 08:14 | -33.71796 | 151.33778 | 6150 ft | 258 kts | 92° |
| 2026-05-07 08:14 | -33.71704 | 151.35952 | 5782 ft | 259 kts | 92° |
| 2026-05-07 08:14 | -33.71624 | 151.38105 | 5426 ft | 258 kts | 92° |
| 2026-05-07 08:14 | -33.71558 | 151.40255 | 5092 ft | 257 kts | 93° |
| 2026-05-07 08:15 | -33.71500 | 151.42409 | 4759 ft | 256 kts | 93° |
| 2026-05-07 08:15 | -33.71646 | 151.44496 | 4419 ft | 245 kts | 118° |
| 2026-05-07 08:15 | -33.72534 | 151.46130 | 4055 ft | 228 kts | 150° |
| 2026-05-07 08:15 | -33.73902 | 151.46902 | 3687 ft | 213 kts | 178° |
| 2026-05-07 08:16 | -33.75374 | 151.47010 | 3350 ft | 205 kts | 190° |
| 2026-05-07 08:16 | -33.76745 | 151.46784 | 3230 ft | 191 kts | 200° |
| 2026-05-07 08:16 | -33.77973 | 151.46299 | 3038 ft | 183 kts | 207° |
| 2026-05-07 08:16 | -33.79123 | 151.45695 | 3028 ft | 177 kts | 210° |
| 2026-05-07 08:17 | -33.80252 | 151.45020 | 3013 ft | 179 kts | 211° |
| 2026-05-07 08:17 | -33.81342 | 151.44333 | 3007 ft | 175 kts | 212° |
| 2026-05-07 08:17 | -33.82430 | 151.43635 | 3063 ft | 174 kts | 212° |
| 2026-05-07 08:17 | -33.83451 | 151.42989 | 2943 ft | 155 kts | 212° |
| 2026-05-07 08:18 | -33.84364 | 151.42434 | 2947 ft | 139 kts | 212° |
| 2026-05-07 08:18 | -33.85214 | 151.41937 | 2982 ft | 133 kts | 212° |
| 2026-05-07 08:18 | -33.86042 | 151.41462 | 2992 ft | 129 kts | 211° |
| 2026-05-07 08:18 | -33.86846 | 151.40987 | 2982 ft | 129 kts | 216° |
| 2026-05-07 08:19 | -33.87509 | 151.40300 | 3013 ft | 125 kts | 230° |
| 2026-05-07 08:19 | -33.88060 | 151.39457 | 2976 ft | 127 kts | 234° |
| 2026-05-07 08:19 | -33.88550 | 151.38575 | 2959 ft | 127 kts | 237° |
| 2026-05-07 08:19 | -33.89014 | 151.37674 | 2971 ft | 127 kts | 239° |
| 2026-05-07 08:20 | -33.89394 | 151.36716 | 2973 ft | 127 kts | 246° |
| 2026-05-07 08:20 | -33.89700 | 151.35721 | 2812 ft | 125 kts | 249° |
| 2026-05-07 08:20 | -33.89964 | 151.34729 | 2689 ft | 126 kts | 250° |
| 2026-05-07 08:20 | -33.90219 | 151.33732 | 2523 ft | 126 kts | 250° |
| 2026-05-07 08:21 | -33.90471 | 151.32729 | 2365 ft | 125 kts | 251° |
| 2026-05-07 08:21 | -33.90720 | 151.31718 | 2215 ft | 127 kts | 251° |
| 2026-05-07 08:21 | -33.90970 | 151.30703 | 2043 ft | 125 kts | 252° |
| 2026-05-07 08:21 | -33.91212 | 151.29694 | 1870 ft | 126 kts | 251° |
| 2026-05-07 08:22 | -33.91454 | 151.28684 | 1713 ft | 126 kts | 251° |
| 2026-05-07 08:22 | -33.91708 | 151.27653 | 1528 ft | 129 kts | 252° |
| 2026-05-07 08:22 | -33.91949 | 151.26640 | 1365 ft | 126 kts | 252° |
| 2026-05-07 08:22 | -33.92193 | 151.25638 | 1186 ft | 123 kts | 252° |
| 2026-05-07 08:23 | -33.92432 | 151.24655 | 1032 ft | 124 kts | 253° |
| 2026-05-07 08:23 | -33.92667 | 151.23655 | 899 ft | 128 kts | 254° |
| 2026-05-07 08:23 | -33.92901 | 151.22606 | 708 ft | 131 kts | 255° |
| 2026-05-07 08:23 | -33.93143 | 151.21564 | 516 ft | 128 kts | 255° |
| 2026-05-07 08:24 | -33.93389 | 151.20542 | 334 ft | 128 kts | 255° |
| 2026-05-07 08:24 | -33.93632 | 151.19526 | 198 ft | 127 kts | 256° |
| 2026-05-07 08:24 | -33.93874 | 151.18516 | 43 ft | 122 kts | 258° |
| 2026-05-07 08:24 | -33.94071 | 151.17631 | 42 ft | 89 kts | 254° |
| 2026-05-07 08:25 | -33.94197 | 151.17083 | 42 ft | 55 kts | 257° |
| 2026-05-07 08:25 | -33.94291 | 151.16708 | 42 ft | 39 kts | 252° |
| 2026-05-07 08:25 | -33.94311 | 151.16532 | 42 ft | 12 kts | 302° |
| 2026-05-07 08:25 | -33.94281 | 151.16501 | 42 ft | 1 kts | 343° |
| 2026-05-07 08:26 | -33.94280 | 151.16500 | 42 ft | 0 kts | 343° |
| 2026-05-07 08:26 | -33.94268 | 151.16496 | 42 ft | 3 kts | 343° |
| 2026-05-07 08:26 | -33.94227 | 151.16480 | 42 ft | 10 kts | 341° |
| 2026-05-07 08:27 | -33.94148 | 151.16494 | 43 ft | 13 kts | 50° |
| 2026-05-07 08:27 | -33.94112 | 151.16624 | 42 ft | 20 kts | 76° |
| 2026-05-07 08:27 | -33.94072 | 151.16816 | 42 ft | 26 kts | 75° |
| 2026-05-07 08:27 | -33.94025 | 151.16994 | 42 ft | 19 kts | 71° |
| 2026-05-07 08:28 | -33.93989 | 151.17129 | 42 ft | 16 kts | 74° |
| 2026-05-07 08:28 | -33.93925 | 151.17212 | 42 ft | 16 kts | 360° |
| 2026-05-07 08:28 | -33.93799 | 151.17174 | 42 ft | 21 kts | 342° |
| 2026-05-07 08:28 | -33.93644 | 151.17128 | 42 ft | 25 kts | 349° |
| 2026-05-07 08:29 | -33.93465 | 151.17090 | 43 ft | 28 kts | 349° |
| 2026-05-07 08:29 | -33.93380 | 151.17068 | 43 ft | 0 kts | 342° |
| 2026-05-07 08:32 | -33.93356 | 151.17057 | 42 ft | 8 kts | 338° |
| 2026-05-07 08:33 | -33.93289 | 151.16995 | 42 ft | 16 kts | 320° |
| 2026-05-07 08:33 | -33.93169 | 151.16937 | 42 ft | 20 kts | 346° |
| 2026-05-07 08:33 | -33.93099 | 151.16899 | 42 ft | 6 kts | 277° |
| 2026-05-07 08:33 | -33.93103 | 151.16837 | 42 ft | 9 kts | 259° |
| 2026-05-07 08:34 | -33.93109 | 151.16804 | 42 ft | 0 kts | 257° |